Dong Fang You 2 — BXEC — position and weather

sailwx.info

Track history (hours):
 
Tides and Currents Weather Stations Pressure Air Temp Water Temp Dewpoint Dewpoint Depression Visibility Wind Speed Wind Dir Waves Ship Positions

Dong Fang You 2

Last reported at 2015-Apr-24 04:22 UTC. Time now 2015-Apr-25 04:17 UTC.
Position N 20°11' E 110°21'.

Length 82 m; draft 3.2 m.

Type: Tanker. MMSI: 412464680.

Date/timePositionNaut miles runAvg speedWind from/ knotsBaromVisibWave heightAir tempDewpointWater temp
2015-Apr-24 04:22N 20°11' E 110°21'6 6.8
2015-Apr-24 03:33N 20°10' E 110°15'  
2015-Apr-19 18:07N 20°11' E 110°13'  
2015-Apr-16 04:33N 21°49' E 113°04'9 8.7
2015-Apr-16 03:33N 21°52' E 113°13'1111.0
2015-Apr-16 02:32N 22°01' E 113°05'4 0.2
2015-Apr-14 22:32N 22°06' E 113°05'9 9.1
2015-Apr-14 21:33N 21°57' E 113°09'9 8.2
2015-Apr-14 20:31N 21°50' E 113°13'8 8.2
2015-Apr-14 19:33N 21°44' E 113°07'  
Track history (hours):
 
Tides and Currents Weather Stations Pressure Air Temp Water Temp Dewpoint Dewpoint Depression Visibility Wind Speed Wind Dir Waves Ship Positions

Dong Fang You 2

Last reported at 2015-Apr-24 04:22 UTC. Time now 2015-Apr-25 04:17 UTC.
Position N 20°11' E 110°21'.

Length 82 m; draft 3.2 m.

Type: Tanker. MMSI: 412464680.

Date/timePositionNaut miles runAvg speedWind from/ knotsBaromVisibWave heightAir tempDewpointWater temp
2015-Apr-24 04:22N 20°11' E 110°21'6 6.8
2015-Apr-24 03:33N 20°10' E 110°15'  
2015-Apr-19 18:07N 20°11' E 110°13'  
2015-Apr-16 04:33N 21°49' E 113°04'9 8.7
2015-Apr-16 03:33N 21°52' E 113°13'1111.0
2015-Apr-16 02:32N 22°01' E 113°05'4 0.2
2015-Apr-14 22:32N 22°06' E 113°05'9 9.1
2015-Apr-14 21:33N 21°57' E 113°09'9 8.2
2015-Apr-14 20:31N 21°50' E 113°13'8 8.2
2015-Apr-14 19:33N 21°44' E 113°07'  

Dump ship's entire track history